Terminal Aerodrome Forecast
Issued by NWS

Home | Current Version | Previous Version | Text Only | Print | Product List | Glossary On
Versions: 1 2 3 4 5 6 7 8 9 10 11 12 13 14 15 16 17 18 19 20 21 22 23 24 25 26 27 28 29 30 31 32 33 34 35 36
000
FTUS42 KGSP 261919 AAA
TAFHKY
TAF AMD
KHKY 261919Z 2619/2718 20009KT P6SM SCT035 BKN200
     FM262100 19005KT P6SM VCTS BKN035CB BKN150
      TEMPO 2622/2702 VRB10G20KT 2SM TSRA OVC015CB
     FM270200 VRB02KT P6SM VCSH OVC045
     FM270600 VRB02KT 4SM -RA BR OVC035
     FM271000 23003KT 4SM BR SCT015 OVC070 PROB30 2710/2716 2SM
      -TSRA BR OVC025CB=

USA.gov is the U.S. government's official web portal to all federal, state and local government web resources and services.